Time;durP1;ratioP1;P1;durP2;ratioP2;P2;SDS_P1;SDS_P2;PMS_P1;PMS_P2;Temp;Humidity;BMP_temperature;BMP_pressure;BME280_temperature;BME280_humidity;BME280_pressure;Samples;Min_cycle;Max_cycle;Signal;HPM_P1;HPM_P2
2022/03/29 00:01:11;;;;;;;5.65;1.42;;;;;;;0.15;92.82;97209.53;6038724;23;20023;-65
2022/03/29 00:03:37;;;;;;;4.28;1.00;;;;;;;0.15;93.33;97220.16;6038494;23;20038;-65
2022/03/29 00:06:03;;;;;;;2.67;0.75;;;;;;;0.10;93.97;97225.06;6038603;23;20031;-65
2022/03/29 00:08:29;;;;;;;5.22;1.10;;;;;;;0.03;94.44;97221.31;6014991;23;20063;-65
2022/03/29 00:10:55;;;;;;;4.13;1.00;;;;;;;0.02;94.79;97227.59;6039004;23;20021;-65
2022/03/29 00:13:21;;;;;;;4.60;0.93;;;;;;;0.01;95.40;97225.94;6038443;23;20050;-65
2022/03/29 00:22:58;;;;;;;4.85;1.20;;;;;;;-0.02;96.43;97244.81;6014521;23;20035;-65
2022/03/29 00:25:24;;;;;;;5.38;1.00;;;;;;;-0.03;96.37;97232.53;6015222;23;20065;-66
2022/03/29 00:27:50;;;;;;;7.20;1.20;;;;;;;0.01;96.26;97233.91;6015100;23;20508;-64
2022/03/29 00:30:16;;;;;;;3.35;0.93;;;;;;;0.03;95.96;97231.94;6038732;23;20018;-65
2022/03/29 00:32:44;;;;;;;4.22;1.15;;;;;;;0.10;96.12;97238.34;5991341;23;20520;-66
2022/03/29 00:35:10;;;;;;;5.35;1.00;;;;;;;0.11;94.93;97229.41;6015177;23;20142;-65
2022/03/29 00:37:37;;;;;;;4.78;1.02;;;;;;;0.20;95.20;97239.13;5991417;23;20452;-65
2022/03/29 00:40:05;;;;;;;4.60;1.30;;;;;;;0.04;95.18;97215.03;6014824;23;20034;-65
2022/03/29 00:42:31;;;;;;;3.88;1.05;;;;;;;0.23;95.15;97251.31;6014557;23;20029;-65
2022/03/29 00:44:57;;;;;;;8.38;1.98;;;;;;;0.31;94.59;97250.56;5991800;23;20026;-65
2022/03/29 00:47:23;;;;;;;5.18;1.23;;;;;;;0.35;93.45;97241.31;6062599;23;20133;-64
2022/03/29 00:49:49;;;;;;;6.93;1.50;;;;;;;0.34;93.89;97237.00;6038797;23;20019;-64
2022/03/29 00:52:17;;;;;;;4.13;1.00;;;;;;;0.36;93.45;97246.47;6064475;23;20022;-65
2022/03/29 00:54:43;;;;;;;8.00;1.42;;;;;;;0.33;93.22;97240.63;5990983;23;20391;-65
2022/03/29 00:57:11;;;;;;;3.55;0.80;;;;;;;0.35;92.76;97242.16;5968446;23;20449;-64
2022/03/29 00:59:43;;;;;;;4.57;1.00;;;;;;;0.32;92.88;97241.59;6014819;23;20071;-65
2022/03/29 01:02:09;;;;;;;6.50;1.45;;;;;;;0.29;92.78;97237.41;6015193;23;20022;-65
2022/03/29 01:04:35;;;;;;;4.95;1.00;;;;;;;0.22;92.94;97229.22;6038889;23;20338;-64
2022/03/29 01:07:01;;;;;;;7.65;1.35;;;;;;;0.33;92.61;97232.66;6015747;23;20023;-65
2022/03/29 01:09:27;;;;;;;5.50;1.40;;;;;;;0.29;91.88;97225.94;6038340;23;20097;-66
2022/03/29 01:11:53;;;;;;;5.53;1.02;;;;;;;0.20;92.55;97233.81;6015718;23;20022;-64
2022/03/29 01:14:21;;;;;;;5.05;1.25;;;;;;;0.15;92.59;97230.78;6014730;23;20034;-65
2022/03/29 01:19:31;;;;;;;4.20;1.08;;;;;;;0.12;92.76;97231.06;6037583;23;20102;-65
2022/03/29 01:22:07;;;;;;;6.97;1.25;;;;;;;0.03;92.54;97221.31;6015067;23;20184;-65
2022/03/29 01:24:40;;;;;;;5.60;1.10;;;;;;;0.02;92.73;97222.28;6038751;23;20026;-64
2022/03/29 01:27:07;;;;;;;6.78;1.02;;;;;;;-0.01;92.89;97225.22;6015245;23;20030;-64
2022/03/29 01:29:34;;;;;;;5.60;1.10;;;;;;;-0.03;92.95;97232.53;6014612;23;20053;-64
2022/03/29 01:32:07;;;;;;;4.03;1.10;;;;;;;-0.02;92.40;97239.50;6038189;23;20023;-65
2022/03/29 01:34:35;;;;;;;8.75;1.25;;;;;;;-0.11;93.22;97232.38;5991743;23;20087;-64
2022/03/29 01:37:02;;;;;;;5.93;1.23;;;;;;;-0.11;93.56;97224.41;5991289;23;20071;-65
2022/03/29 01:39:28;;;;;;;4.00;1.00;;;;;;;-0.26;93.73;97216.94;6038085;23;20103;-64
2022/03/29 01:41:54;;;;;;;3.65;0.90;;;;;;;-0.22;93.75;97243.19;5991819;23;20302;-65
2022/03/29 01:44:20;;;;;;;10.35;1.27;;;;;;;-0.27;94.22;97236.47;6038476;23;20023;-64
2022/03/29 01:46:45;;;;;;;4.50;1.17;;;;;;;-0.23;94.13;97245.00;6014906;23;20060;-64
2022/03/29 01:49:13;;;;;;;3.83;0.98;;;;;;;-0.19;94.69;97243.72;6013981;23;20744;-62
2022/03/29 01:51:39;;;;;;;9.85;1.60;;;;;;;-0.08;94.08;97248.03;6039890;23;20107;-63
2022/03/29 01:54:05;;;;;;;7.43;1.00;;;;;;;-0.03;93.55;97243.16;6018013;23;20422;-64
2022/03/29 01:56:32;;;;;;;3.78;1.10;;;;;;;0.00;93.26;97248.19;6016940;23;20050;-64
2022/03/29 01:58:59;;;;;;;6.20;1.13;;;;;;;-0.08;92.92;97213.50;6039842;23;20054;-64
2022/03/29 02:01:25;;;;;;;4.35;0.95;;;;;;;0.08;93.03;97244.78;5992627;23;20023;-64
2022/03/29 02:03:51;;;;;;;6.82;1.13;;;;;;;0.09;93.07;97247.28;6040313;23;20023;-64
2022/03/29 02:06:16;;;;;;;6.03;1.23;;;;;;;0.11;92.95;97240.03;6040039;23;20102;-65
2022/03/29 02:08:43;;;;;;;6.18;1.15;;;;;;;0.08;92.72;97232.34;6016328;23;20066;-65
2022/03/29 02:11:09;;;;;;;7.38;1.48;;;;;;;0.18;92.50;97250.88;6016073;23;20470;-65
2022/03/29 02:13:35;;;;;;;7.40;1.25;;;;;;;0.15;92.06;97246.72;5992592;23;20055;-65
2022/03/29 02:16:01;;;;;;;4.57;1.30;;;;;;;0.10;92.52;97262.22;6039792;23;20059;-65
2022/03/29 02:18:26;;;;;;;5.15;1.10;;;;;;;0.09;92.50;97247.28;6039853;23;20018;-64
2022/03/29 02:20:53;;;;;;;6.20;1.23;;;;;;;0.10;92.04;97253.44;5992607;23;20057;-66
2022/03/29 02:23:18;;;;;;;7.35;1.30;;;;;;;0.04;92.12;97261.97;6039580;23;20029;-65
2022/03/29 02:25:46;;;;;;;6.03;1.10;;;;;;;-0.06;91.98;97249.56;6040122;23;20019;-65
2022/03/29 02:28:12;;;;;;;9.70;1.20;;;;;;;-0.03;92.32;97254.59;6016558;23;20101;-64
2022/03/29 02:30:38;;;;;;;4.93;1.23;;;;;;;-0.11;92.07;97241.22;6039182;23;20027;-63
2022/03/29 02:33:05;;;;;;;5.57;1.00;;;;;;;0.00;91.76;97274.72;6039824;23;20018;-65
2022/03/29 02:35:31;;;;;;;4.05;1.00;;;;;;;-0.07;92.61;97263.00;6039697;23;20042;-65
2022/03/29 02:38:18;;;;;;;8.75;1.48;;;;;;;-0.20;93.11;97258.00;5992968;23;20051;-66
2022/03/29 02:47:44;;;;;;;;;;;;;;;-0.41;93.88;97268.78;6016383;23;20083;-64
2022/03/29 02:50:47;;;;;;;5.32;1.02;;;;;;;-0.35;92.77;97275.34;6063305;23;19925;-65
2022/03/29 02:55:58;;;;;;;8.45;1.48;;;;;;;-0.42;92.52;97263.63;6019324;23;20150;-66
2022/03/29 02:59:01;;;;;;;4.85;1.25;;;;;;;-0.19;92.49;97296.81;6043857;23;20023;-64
2022/03/29 03:04:30;;;;;;;8.82;1.48;;;;;;;-0.03;91.08;97288.28;6022908;23;20442;-64
2022/03/29 03:07:32;;;;;;;5.95;1.25;;;;;;;0.01;90.53;97291.50;6043427;23;20420;-65
2022/03/29 03:10:36;;;;;;;6.03;1.23;;;;;;;-0.02;90.79;97287.31;6064882;23;20089;-64
2022/03/29 03:13:21;;;;;;;4.93;1.20;;;;;;;-0.06;91.27;97281.44;6015969;23;20029;-65
2022/03/29 03:16:05;;;;;;;7.60;1.60;;;;;;;-0.08;91.88;97293.19;6039613;23;20034;-65
2022/03/29 03:18:49;;;;;;;5.40;1.20;;;;;;;-0.12;92.10;97292.63;6063311;23;20083;-64
2022/03/29 03:21:15;;;;;;;7.10;1.50;;;;;;;-0.08;92.24;97287.88;5991485;23;20466;-66
2022/03/29 03:23:41;;;;;;;8.85;1.67;;;;;;;-0.05;91.89;97292.91;5991929;23;20071;-66
2022/03/29 03:26:07;;;;;;;6.72;1.20;;;;;;;-0.08;91.86;97290.53;5991948;23;20022;-65
2022/03/29 03:28:33;;;;;;;6.28;1.58;;;;;;;-0.12;92.11;97297.09;5991641;23;20022;-64
2022/03/29 03:30:59;;;;;;;6.63;1.70;;;;;;;-0.12;92.26;97302.41;6014668;23;20095;-65
2022/03/29 03:33:25;;;;;;;7.15;1.67;;;;;;;-0.14;92.25;97309.69;6015599;23;20034;-64
2022/03/29 03:35:51;;;;;;;6.75;1.50;;;;;;;-0.21;92.95;97300.63;6015081;23;20167;-63
2022/03/29 03:38:17;;;;;;;6.13;1.30;;;;;;;-0.22;93.02;97314.84;5991786;23;20033;-65
2022/03/29 03:40:43;;;;;;;6.82;1.42;;;;;;;-0.23;92.80;97315.84;6015361;23;20026;-65
2022/03/29 03:43:09;;;;;;;10.52;1.30;;;;;;;-0.30;92.59;97300.47;6039342;23;20062;-67
2022/03/29 03:45:35;;;;;;;6.53;1.50;;;;;;;-0.15;92.35;97318.63;6038835;23;20043;-65
2022/03/29 03:48:02;;;;;;;5.65;1.50;;;;;;;-0.17;92.13;97323.25;6015532;23;20019;-65
2022/03/29 03:50:28;;;;;;;6.90;1.58;;;;;;;-0.18;92.12;97314.44;6038624;23;20023;-65
2022/03/29 03:52:54;;;;;;;7.13;1.25;;;;;;;-0.09;92.02;97326.03;6015008;23;20026;-65
2022/03/29 03:55:21;;;;;;;8.60;1.70;;;;;;;0.04;90.83;97328.38;5991331;23;20070;-65
2022/03/29 03:57:48;;;;;;;7.43;1.60;;;;;;;0.12;90.51;97334.66;6015281;23;20335;-64
2022/03/29 04:00:14;;;;;;;6.85;1.45;;;;;;;0.09;90.03;97326.97;6038407;23;20029;-66
2022/03/29 04:02:40;;;;;;;9.13;1.60;;;;;;;-0.11;90.05;97304.06;6004731;23;20073;-66
2022/03/29 04:05:13;;;;;;;6.88;1.75;;;;;;;0.06;90.57;97337.88;6037135;23;20018;-65
2022/03/29 04:07:39;;;;;;;7.90;1.55;;;;;;;0.02;91.40;97352.44;6036520;23;20034;-65
2022/03/29 04:10:07;;;;;;;5.30;1.33;;;;;;;-0.02;91.19;97343.06;6033843;23;20165;-65
2022/03/29 04:12:33;;;;;;;3.95;1.02;;;;;;;-0.03;91.51;97344.91;6058467;23;20023;-65
2022/03/29 04:14:59;;;;;;;6.55;1.75;;;;;;;0.01;92.01;97341.97;6008813;23;20304;-64
2022/03/29 04:17:25;;;;;;;6.65;1.40;;;;;;;0.11;91.35;97350.72;6035800;23;20272;-65
2022/03/29 04:19:51;;;;;;;8.55;2.22;;;;;;;0.16;90.82;97349.34;5989637;23;20122;-64
2022/03/29 04:22:18;;;;;;;7.72;1.80;;;;;;;0.20;91.23;97348.06;6036510;23;20027;-66
2022/03/29 04:24:45;;;;;;;7.13;1.67;;;;;;;0.28;90.20;97352.66;6035578;23;20109;-66
2022/03/29 04:27:11;;;;;;;6.38;1.75;;;;;;;0.37;90.32;97356.28;6058562;23;20097;-66
2022/03/29 04:29:37;;;;;;;8.70;1.80;;;;;;;0.22;89.97;97338.16;6012586;23;20059;-66
2022/03/29 04:32:03;;;;;;;11.20;2.10;;;;;;;0.50;88.84;97356.78;5989102;23;20026;-66
2022/03/29 04:34:29;;;;;;;6.95;1.70;;;;;;;0.60;88.69;97373.56;6037400;23;20031;-67
2022/03/29 04:36:58;;;;;;;9.38;1.60;;;;;;;0.57;88.65;97368.53;6014537;23;20087;-65
2022/03/29 04:39:25;;;;;;;8.93;1.85;;;;;;;0.50;88.80;97359.44;6038202;23;20048;-66
2022/03/29 04:41:51;;;;;;;7.90;2.10;;;;;;;0.68;87.87;97370.16;6037626;23;20031;-66
2022/03/29 04:44:17;;;;;;;8.50;1.70;;;;;;;0.68;87.07;97376.31;6037451;23;20026;-66
2022/03/29 04:46:44;;;;;;;7.63;2.05;;;;;;;0.80;86.71;97368.16;5991015;23;20035;-67
2022/03/29 04:49:09;;;;;;;8.45;1.98;;;;;;;0.80;86.43;97352.19;6038587;23;20027;-66
2022/03/29 04:51:35;;;;;;;7.00;2.15;;;;;;;1.08;85.48;97372.50;6062584;23;20033;-66
2022/03/29 04:54:02;;;;;;;6.63;1.60;;;;;;;1.31;84.50;97377.41;6014864;23;20038;-66
2022/03/29 04:56:29;;;;;;;8.75;2.28;;;;;;;1.43;83.53;97370.91;5991427;23;20034;-66
2022/03/29 04:58:55;;;;;;;7.47;1.80;;;;;;;1.41;83.33;97367.56;5990227;23;20086;-66
2022/03/29 05:01:21;;;;;;;7.03;1.90;;;;;;;1.48;82.29;97379.28;6014365;23;20082;-66
2022/03/29 05:03:47;;;;;;;8.10;2.22;;;;;;;1.47;82.59;97380.28;6014554;23;20026;-66
2022/03/29 05:06:13;;;;;;;12.25;2.40;;;;;;;1.65;81.77;97381.13;6014666;23;20135;-66
2022/03/29 05:08:39;;;;;;;9.80;1.80;;;;;;;1.53;81.90;97377.00;6014996;23;20031;-66
2022/03/29 05:11:05;;;;;;;7.38;2.13;;;;;;;1.73;80.93;97390.19;5991462;23;20033;-66
2022/03/29 05:13:31;;;;;;;7.15;2.00;;;;;;;1.67;80.93;97394.28;6014581;23;20019;-69
2022/03/29 05:15:57;;;;;;;8.98;2.20;;;;;;;1.52;81.44;97391.31;6014266;23;20030;-66
2022/03/29 05:18:23;;;;;;;7.53;1.70;;;;;;;1.71;80.96;97384.16;5991491;23;20026;-65
2022/03/29 05:20:48;;;;;;;8.68;2.00;;;;;;;1.62;80.96;97392.06;5991405;23;20097;-66
2022/03/29 05:23:18;;;;;;;8.80;2.03;;;;;;;1.66;81.52;97401.44;6037782;23;20065;-66
2022/03/29 05:25:43;;;;;;;6.28;1.25;;;;;;;1.64;81.60;97395.41;6037824;23;20026;-66
2022/03/29 05:28:10;;;;;;;8.70;1.65;;;;;;;1.67;80.79;97391.63;6014692;23;20099;-66
2022/03/29 05:30:36;;;;;;;14.10;2.40;;;;;;;1.78;80.93;97399.38;5992353;23;20031;-66
2022/03/29 05:33:03;;;;;;;9.93;2.05;;;;;;;1.61;81.46;97382.41;6016690;23;20019;-66
2022/03/29 05:35:30;;;;;;;6.88;1.70;;;;;;;1.68;81.00;97394.16;6040287;23;20022;-66
2022/03/29 05:37:57;;;;;;;8.95;2.00;;;;;;;1.76;81.14;97397.88;6016303;23;20030;-66
2022/03/29 05:40:25;;;;;;;7.78;2.10;;;;;;;1.76;80.93;97397.88;6065112;23;20029;-66
2022/03/29 05:42:52;;;;;;;6.88;1.80;;;;;;;1.83;79.57;97402.44;6015873;23;20030;-66
2022/03/29 05:45:18;;;;;;;9.15;2.65;;;;;;;1.85;80.00;97403.13;6039888;23;20048;-66
2022/03/29 05:50:28;;;;;;;7.55;2.00;;;;;;;2.04;78.83;97386.13;6020137;23;20053;-66
2022/03/29 05:52:56;;;;;;;6.50;1.67;;;;;;;2.10;78.52;97400.69;6064109;23;20019;-66
2022/03/29 05:55:22;;;;;;;7.68;2.10;;;;;;;2.25;77.78;97403.63;6040791;23;20095;-67
2022/03/29 05:57:49;;;;;;;9.10;1.77;;;;;;;2.53;76.24;97394.50;5993432;23;20114;-66
2022/03/29 06:00:17;;;;;;;8.30;2.40;;;;;;;2.65;75.47;97403.09;6039727;23;20026;-66
2022/03/29 06:02:43;;;;;;;8.25;2.13;;;;;;;2.76;74.25;97391.31;6016803;23;20026;-67
2022/03/29 06:05:09;;;;;;;8.95;2.20;;;;;;;2.75;74.31;97395.81;5970078;23;20129;-65
2022/03/29 06:07:35;;;;;;;8.70;1.98;;;;;;;2.79;74.16;97404.34;5993459;23;20117;-66
2022/03/29 06:10:03;;;;;;;7.20;2.05;;;;;;;2.94;72.97;97394.75;6016356;23;20406;-67
2022/03/29 06:12:30;;;;;;;7.30;1.80;;;;;;;3.13;72.49;97405.19;5992633;23;20438;-66
2022/03/29 06:14:56;;;;;;;8.02;2.40;;;;;;;2.89;72.37;97408.59;6040716;23;20046;-66
2022/03/29 06:17:22;;;;;;;6.57;2.30;;;;;;;2.85;72.58;97422.38;6016120;23;20118;-66
2022/03/29 06:19:48;;;;;;;6.63;1.80;;;;;;;2.68;72.55;97415.28;5992531;23;20083;-67
2022/03/29 06:22:14;;;;;;;6.60;1.45;;;;;;;2.75;73.48;97416.34;5992890;23;20042;-70
2022/03/29 06:24:40;;;;;;;7.53;1.70;;;;;;;2.82;72.97;97407.53;6016534;23;20059;-66
2022/03/29 06:27:06;;;;;;;9.45;1.85;;;;;;;2.80;73.15;97424.69;6016732;23;20034;-66
2022/03/29 06:29:34;;;;;;;6.50;1.48;;;;;;;2.60;74.54;97427.56;6016604;23;20027;-66
2022/03/29 06:32:01;;;;;;;6.75;1.73;;;;;;;2.78;74.67;97432.00;6039724;23;20027;-66
2022/03/29 06:34:29;;;;;;;8.93;2.35;;;;;;;2.95;74.09;97444.47;5992869;23;20034;-66
2022/03/29 06:36:56;;;;;;;11.38;2.60;;;;;;;2.95;73.99;97446.28;5993497;23;20030;-66
2022/03/29 06:39:22;;;;;;;6.32;1.73;;;;;;;2.79;73.92;97460.38;5993897;23;20419;-67
2022/03/29 06:41:48;;;;;;;6.80;2.13;;;;;;;2.11;79.65;97480.47;5993081;23;20075;-66
2022/03/29 06:44:14;;;;;;;7.35;1.58;;;;;;;1.50;84.18;97498.91;6016511;23;20426;-66
2022/03/29 06:46:41;;;;;;;9.40;1.63;;;;;;;1.20;88.19;97499.03;5993624;23;20126;-66
2022/03/29 06:49:07;;;;;;;6.72;1.63;;;;;;;1.20;88.54;97504.38;6016583;23;20549;-65
2022/03/29 06:51:35;;;;;;;5.05;1.40;;;;;;;1.04;88.29;97488.19;6015935;23;20033;-66
2022/03/29 06:54:04;;;;;;;5.88;1.65;;;;;;;1.03;87.93;97518.44;6040249;23;20110;-65
2022/03/29 06:56:31;;;;;;;6.65;1.70;;;;;;;0.92;88.80;97502.66;6039358;23;20474;-66
2022/03/29 06:59:00;;;;;;;7.57;1.70;;;;;;;1.12;87.67;97528.22;6039920;23;20090;-66
2022/03/29 07:01:26;;;;;;;7.50;1.60;;;;;;;1.20;86.06;97517.66;6039689;23;20477;-66
2022/03/29 07:03:52;;;;;;;6.97;1.83;;;;;;;1.32;84.68;97528.16;6040106;23;20071;-65
2022/03/29 07:06:18;;;;;;;7.25;2.00;;;;;;;1.59;83.43;97519.34;6016060;23;20075;-65
2022/03/29 07:11:29;;;;;;;6.97;1.65;;;;;;;2.10;77.77;97518.78;6043355;23;20050;-65
2022/03/29 07:13:55;;;;;;;10.27;1.98;;;;;;;2.36;77.21;97528.69;6039770;23;20081;-66
2022/03/29 07:16:21;;;;;;;8.07;1.95;;;;;;;2.38;77.21;97521.41;6015330;23;20461;-66
2022/03/29 07:18:47;;;;;;;9.20;2.00;;;;;;;2.28;74.39;97531.28;5992131;23;20027;-66
2022/03/29 07:21:13;;;;;;;7.22;1.60;;;;;;;2.49;73.93;97526.50;6038940;23;20023;-66
2022/03/29 07:23:40;;;;;;;8.35;2.20;;;;;;;2.97;73.59;97538.56;6015777;23;20050;-66
2022/03/29 07:26:06;;;;;;;7.15;1.92;;;;;;;2.84;73.40;97532.78;6039722;23;20477;-66
2022/03/29 07:28:32;;;;;;;8.68;2.40;;;;;;;2.96;71.84;97546.69;5992426;23;20022;-66
2022/03/29 07:30:58;;;;;;;7.32;1.90;;;;;;;2.51;71.01;97543.16;5991526;23;20030;-66
2022/03/29 07:33:24;;;;;;;8.05;2.00;;;;;;;2.35;72.58;97564.34;6015461;23;20026;-66
2022/03/29 07:35:50;;;;;;;10.00;2.38;;;;;;;1.87;79.96;97565.50;5991961;23;20501;-66
2022/03/29 07:38:16;;;;;;;7.78;1.95;;;;;;;1.73;78.85;97569.47;5993004;23;20058;-66
2022/03/29 07:40:43;;;;;;;7.40;1.83;;;;;;;1.79;74.65;97552.91;5992314;23;20078;-66
2022/03/29 07:43:11;;;;;;;5.32;1.55;;;;;;;2.51;76.09;97564.50;6065362;23;20041;-67
2022/03/29 07:45:38;;;;;;;5.80;1.30;;;;;;;3.20;72.89;97570.06;5992043;23;20037;-66
2022/03/29 07:48:04;;;;;;;6.25;1.60;;;;;;;3.95;70.37;97573.84;6039426;23;20464;-66
2022/03/29 07:50:32;;;;;;;7.10;1.33;;;;;;;4.21;67.08;97578.28;6038885;23;20093;-66
2022/03/29 07:52:59;;;;;;;5.63;1.58;;;;;;;3.69;68.33;97571.19;6014684;23;20027;-66
2022/03/29 07:55:26;;;;;;;6.07;1.85;;;;;;;3.04;70.18;97587.66;6015797;23;20386;-66
2022/03/29 07:57:52;;;;;;;7.07;2.55;;;;;;;2.52;71.92;97584.00;6039624;23;20137;-66
2022/03/29 08:00:35;;;;;;;7.03;1.75;;;;;;;2.57;72.79;97590.56;5991295;23;20355;-66
2022/03/29 08:03:06;;;;;;;7.40;2.30;;;;;;;2.21;74.05;97594.19;6086620;23;20026;-66
2022/03/29 08:05:34;;;;;;;6.45;1.92;;;;;;;2.22;72.65;97579.84;6015234;23;20023;-66
2022/03/29 08:08:01;;;;;;;8.95;2.30;;;;;;;2.51;73.76;97595.66;6015317;23;20476;-66
2022/03/29 08:10:29;;;;;;;8.18;1.85;;;;;;;2.42;73.41;97608.91;6014687;23;20137;-66
2022/03/29 08:13:03;;;;;;;6.00;1.67;;;;;;;1.92;72.90;97611.16;6015507;23;20322;-66
2022/03/29 08:15:30;;;;;;;6.65;2.10;;;;;;;1.78;74.89;97611.63;5991931;23;20263;-66
2022/03/29 08:17:57;;;;;;;9.40;2.80;;;;;;;2.20;73.68;97613.84;5992110;23;20111;-66
2022/03/29 08:20:23;;;;;;;9.02;2.60;;;;;;;2.24;73.87;97620.56;6038944;23;20078;-66
2022/03/29 08:22:49;;;;;;;9.38;2.65;;;;;;;2.50;74.39;97616.16;6038687;23;20023;-66
2022/03/29 08:25:16;;;;;;;8.60;2.30;;;;;;;2.73;72.76;97600.53;5991640;23;20375;-66
2022/03/29 08:27:43;;;;;;;8.38;2.25;;;;;;;2.53;72.87;97583.88;6039420;23;20024;-67
2022/03/29 08:30:10;;;;;;;8.23;2.42;;;;;;;3.11;71.67;97620.75;6038623;23;20438;-66
2022/03/29 08:32:36;;;;;;;8.90;2.75;;;;;;;3.55;68.27;97622.56;6015576;23;20057;-66
2022/03/29 08:35:04;;;;;;;10.00;2.75;;;;;;;3.84;66.37;97624.91;6014845;23;20033;-65
2022/03/29 08:37:30;;;;;;;6.78;2.33;;;;;;;4.34;63.23;97618.75;5991562;23;20046;-66
2022/03/29 08:39:56;;;;;;;7.20;2.20;;;;;;;4.04;62.61;97623.66;6015191;23;20026;-66
2022/03/29 08:42:24;;;;;;;12.70;2.65;;;;;;;3.93;62.81;97631.97;6038764;23;20075;-66
2022/03/29 08:44:50;;;;;;;10.30;2.65;;;;;;;4.59;61.20;97633.06;5991771;23;20390;-67
2022/03/29 08:47:16;;;;;;;8.68;2.92;;;;;;;4.89;60.20;97639.63;6039511;23;20027;-67
2022/03/29 08:49:48;;;;;;;8.02;2.58;;;;;;;5.56;57.96;97637.66;6015004;23;20027;-67
2022/03/29 08:52:14;;;;;;;8.25;2.53;;;;;;;5.87;54.94;97639.59;6039029;23;20457;-67
2022/03/29 08:54:40;;;;;;;8.30;3.35;;;;;;;6.72;54.42;97638.97;5991485;23;20465;-67
2022/03/29 08:57:06;;;;;;;9.15;2.45;;;;;;;7.05;52.73;97644.97;5991295;23;20101;-67
2022/03/29 08:59:32;;;;;;;8.25;2.75;;;;;;;7.06;52.72;97643.97;6014522;23;20126;-67
2022/03/29 09:02:13;;;;;;;8.80;2.53;;;;;;;6.21;54.33;97646.56;5991988;23;20031;-67
2022/03/29 09:04:39;;;;;;;8.32;2.80;;;;;;;5.50;55.87;97646.38;6041218;23;20027;-67
2022/03/29 09:07:05;;;;;;;7.75;1.90;;;;;;;5.01;56.65;97656.22;5993331;23;20105;-68
2022/03/29 09:09:34;;;;;;;6.30;1.67;;;;;;;4.37;57.18;97655.91;6016055;23;20026;-66
2022/03/29 09:12:20;;;;;;;8.25;2.10;;;;;;;4.06;59.17;97663.63;6040025;23;20019;-66
2022/03/29 09:14:54;;;;;;;7.65;1.98;;;;;;;3.99;60.40;97678.63;6040075;23;20034;-66
2022/03/29 09:17:32;;;;;;;6.88;1.60;;;;;;;3.90;61.04;97680.38;5986101;23;20415;-65
2022/03/29 09:20:04;;;;;;;6.00;1.65;;;;;;;4.06;61.86;97685.84;6011654;23;20030;-67
2022/03/29 09:22:49;;;;;;;6.20;1.80;;;;;;;4.69;60.56;97686.44;6011801;23;20057;-67
2022/03/29 09:25:17;;;;;;;9.05;2.00;;;;;;;4.84;59.74;97679.47;6011989;23;20019;-67
2022/03/29 09:27:58;;;;;;;6.25;1.63;;;;;;;4.88;58.96;97686.16;6011949;23;20031;-67
2022/03/29 09:30:26;;;;;;;6.78;1.83;;;;;;;5.26;58.51;97691.91;6035360;23;20051;-67
2022/03/29 09:32:57;;;;;;;6.18;1.70;;;;;;;4.83;60.23;97696.53;6011831;23;20162;-67
2022/03/29 09:35:23;;;;;;;8.85;2.20;;;;;;;4.74;58.81;97681.44;6011995;23;20031;-66
2022/03/29 09:37:49;;;;;;;8.55;2.13;;;;;;;4.96;59.24;97694.19;6011722;23;20079;-66
2022/03/29 09:40:16;;;;;;;8.13;2.97;;;;;;;5.05;57.33;97687.88;6011259;23;20027;-67
2022/03/29 09:43:06;;;;;;;7.65;2.22;;;;;;;5.54;57.59;97698.63;6008625;23;20038;-67
2022/03/29 09:45:40;;;;;;;7.03;2.00;;;;;;;6.15;55.93;97695.56;6035670;23;20034;-67
2022/03/29 09:48:40;;;;;;;9.73;2.40;;;;;;;7.39;50.78;97674.13;6035388;23;20037;-67
2022/03/29 09:51:14;;;;;;;7.57;2.10;;;;;;;7.40;49.64;97675.81;5981127;23;20717;-67
2022/03/29 09:53:50;;;;;;;13.60;2.20;;;;;;;7.49;50.77;97680.13;6012173;23;20027;-67
2022/03/29 09:56:16;;;;;;;;;;;;;;;6.49;52.26;97690.75;6013072;23;20050;-67
2022/03/29 09:58:43;;;;;;;7.25;1.73;;;;;;;6.17;52.12;97680.13;6035170;23;19922;-66
2022/03/29 10:01:23;;;;;;;6.22;1.98;;;;;;;5.70;53.10;97692.41;5987938;23;20100;-67
2022/03/29 10:03:53;;;;;;;6.35;1.83;;;;;;;5.04;56.07;97698.72;5988439;23;20038;-66
2022/03/29 10:06:21;;;;;;;6.03;1.75;;;;;;;4.83;55.15;97694.69;6012047;23;20027;-66
2022/03/29 10:11:34;;;;;;;10.75;2.55;;;;;;;4.46;58.33;97679.03;5991637;23;20027;-67
2022/03/29 10:14:02;;;;;;;6.93;1.90;;;;;;;4.33;57.18;97708.03;5988100;23;20034;-66
2022/03/29 10:16:28;;;;;;;5.35;1.65;;;;;;;4.14;57.67;97708.28;5988707;23;20430;-66
2022/03/29 10:18:55;;;;;;;6.82;1.98;;;;;;;4.05;57.71;97704.69;5992901;23;20102;-66
2022/03/29 10:21:21;;;;;;;6.78;2.08;;;;;;;4.31;58.51;97715.38;6016151;23;20038;-67
2022/03/29 10:23:51;;;;;;;6.53;1.70;;;;;;;4.06;57.80;97717.09;6016706;23;20031;-67
2022/03/29 10:26:21;;;;;;;7.35;2.30;;;;;;;3.78;58.21;97724.41;6064044;23;20097;-67
2022/03/29 10:28:51;;;;;;;10.07;2.47;;;;;;;3.57;58.89;97722.91;6018327;23;20110;-67
2022/03/29 10:31:50;;;;;;;6.55;2.10;;;;;;;3.63;60.96;97733.00;6016189;23;20166;-66
2022/03/29 10:34:24;;;;;;;7.57;2.22;;;;;;;3.67;59.53;97713.97;5942043;23;20023;-67
2022/03/29 10:37:13;;;;;;;6.90;2.25;;;;;;;3.84;59.07;97745.19;6040169;23;20034;-66
2022/03/29 10:39:47;;;;;;;10.63;2.45;;;;;;;3.41;59.75;97730.81;6039954;23;20432;-66
2022/03/29 10:42:37;;;;;;;7.20;2.13;;;;;;;3.53;60.35;97742.09;6063602;23;20090;-66
2022/03/29 10:45:05;;;;;;;;;;;;;;;3.77;60.05;97742.28;6019230;23;20034;-66
2022/03/29 10:47:32;;;;;;;8.98;2.40;;;;;;;3.80;60.08;97744.66;6064495;23;20297;-67
2022/03/29 10:49:58;;;;;;;9.80;2.30;;;;;;;3.86;59.39;97745.84;6040140;23;20026;-66
2022/03/29 10:52:25;;;;;;;8.23;2.20;;;;;;;3.62;59.73;97747.34;6039685;23;20072;-67
2022/03/29 10:54:53;;;;;;;8.82;2.15;;;;;;;3.25;60.75;97749.31;6039685;23;20025;-66
2022/03/29 10:57:24;;;;;;;10.52;2.30;;;;;;;3.68;60.54;97745.03;5993724;23;20023;-67
2022/03/29 10:59:58;;;;;;;10.60;2.65;;;;;;;3.37;62.08;97750.81;6017761;23;20117;-67
2022/03/29 11:02:25;;;;;;;7.22;2.00;;;;;;;3.75;60.70;97751.44;6017171;23;20023;-66
2022/03/29 11:05:08;;;;;;;9.10;2.20;;;;;;;3.51;61.52;97749.41;5992128;23;20484;-66
2022/03/29 11:07:38;;;;;;;7.45;2.40;;;;;;;3.62;60.80;97749.19;5992475;23;20030;-67
2022/03/29 11:10:19;;;;;;;7.32;2.20;;;;;;;3.48;61.58;97747.91;6015424;23;20019;-67
2022/03/29 11:12:56;;;;;;;7.53;2.50;;;;;;;3.77;60.15;97746.81;6039320;23;20018;-67
2022/03/29 11:15:27;;;;;;;7.32;2.63;;;;;;;3.83;61.30;97743.50;6062948;23;20026;-66
2022/03/29 11:17:56;;;;;;;9.57;2.35;;;;;;;3.99;60.16;97743.63;6038871;23;20014;-66
2022/03/29 11:20:38;;;;;;;7.68;3.05;;;;;;;3.85;60.05;97754.88;6015776;23;20433;-67
2022/03/29 11:23:08;;;;;;;8.48;2.80;;;;;;;3.87;59.51;97748.34;6015684;23;20023;-66
2022/03/29 11:25:39;;;;;;;11.13;2.70;;;;;;;3.82;59.66;97752.50;6063451;23;20361;-66
2022/03/29 11:28:16;;;;;;;7.82;2.92;;;;;;;3.84;61.08;97750.53;6015959;23;20050;-66
2022/03/29 11:30:42;;;;;;;8.63;2.80;;;;;;;3.83;60.49;97741.66;6016529;23;20524;-65
2022/03/29 11:33:09;;;;;;;9.70;2.88;;;;;;;3.87;59.81;97744.84;6016726;23;20027;-67
2022/03/29 11:35:37;;;;;;;7.60;2.35;;;;;;;3.74;59.86;97710.53;6040278;23;20027;-67
2022/03/29 11:38:10;;;;;;;8.95;2.60;;;;;;;4.31;58.72;97743.00;6016317;23;20098;-66
2022/03/29 11:40:38;;;;;;;10.25;2.50;;;;;;;4.24;59.34;97741.06;6039581;23;20030;-67
2022/03/29 11:43:10;;;;;;;8.18;2.45;;;;;;;4.37;58.52;97746.84;6039948;23;20053;-67
2022/03/29 11:45:42;;;;;;;7.72;2.40;;;;;;;4.48;58.77;97759.94;6039228;23;20057;-66
2022/03/29 11:48:14;;;;;;;8.15;2.60;;;;;;;4.73;59.23;97750.19;6064787;23;20445;-66
2022/03/29 11:50:45;;;;;;;8.15;3.05;;;;;;;4.68;58.49;97757.00;6016062;23;20091;-67
2022/03/29 11:53:19;;;;;;;8.68;2.72;;;;;;;4.82;58.38;97762.59;6039529;23;20094;-67
2022/03/29 11:55:58;;;;;;;9.70;2.60;;;;;;;4.99;58.09;97771.53;6038757;23;20027;-67
2022/03/29 11:58:48;;;;;;;9.23;3.05;;;;;;;4.65;58.01;97768.06;6063108;23;20023;-67
2022/03/29 12:01:15;;;;;;;7.82;2.45;;;;;;;4.00;60.79;97776.53;6038780;23;20039;-68
2022/03/29 12:03:44;;;;;;;8.05;3.13;;;;;;;4.20;60.21;97772.66;6039187;23;20126;-68
2022/03/29 12:06:21;;;;;;;8.32;2.95;;;;;;;4.00;60.31;97782.72;6039302;23;20450;-67
2022/03/29 12:09:05;;;;;;;8.25;2.40;;;;;;;3.91;59.96;97780.97;6039407;23;20110;-67
2022/03/29 12:11:37;;;;;;;8.75;2.70;;;;;;;3.99;59.58;97780.22;6015551;23;20018;-67
2022/03/29 12:14:05;;;;;;;10.05;2.70;;;;;;;3.94;60.06;97794.03;6039460;23;20023;-67
2022/03/29 12:16:35;;;;;;;11.18;2.95;;;;;;;3.70;61.70;97783.16;6038827;23;20034;-67
2022/03/29 12:19:06;;;;;;;15.80;2.90;;;;;;;3.46;61.28;97791.78;6015315;23;20448;-67
2022/03/29 12:21:32;;;;;;;9.35;3.40;;;;;;;3.09;62.25;97806.06;6014543;23;20027;-67